Time;durP1;ratioP1;P1;durP2;ratioP2;P2;SDS_P1;SDS_P2;PMS_P1;PMS_P2;Temp;Humidity;BMP_temperature;BMP_pressure;BME280_temperature;BME280_humidity;BME280_pressure;Samples;Min_cycle;Max_cycle;Signal;HPM_P1;HPM_P2
2022/08/31 00:04:32;;;;;;;11.55;8.85;;;;;;;25.76;51.55;94892.69;5020958;28;20048;-64
2022/08/31 00:06:57;;;;;;;10.50;9.25;;;;;;;25.70;51.39;94892.06;5003178;28;20022;-64
2022/08/31 00:09:23;;;;;;;10.75;8.98;;;;;;;25.74;51.59;94895.22;5021186;28;20126;-64
2022/08/31 00:11:48;;;;;;;12.90;9.65;;;;;;;26.31;51.57;94975.19;5007285;28;20042;-63
2022/08/31 00:14:14;;;;;;;10.57;9.45;;;;;;;26.28;51.61;94978.97;5003113;28;20033;-64
2022/08/31 00:16:40;;;;;;;10.98;9.05;;;;;;;25.82;51.88;94935.81;5020085;28;20033;-64
2022/08/31 00:19:06;;;;;;;10.82;8.90;;;;;;;26.27;51.53;94974.72;5021752;28;20079;-63
2022/08/31 00:21:32;;;;;;;10.57;9.25;;;;;;;26.27;51.48;94986.44;5019165;28;20045;-64
2022/08/31 00:23:57;;;;;;;11.20;9.13;;;;;;;26.31;51.39;94975.19;5020843;28;20446;-63
2022/08/31 00:26:23;;;;;;;10.40;9.02;;;;;;;26.24;51.66;94986.72;5019205;28;20053;-64
2022/08/31 00:28:48;;;;;;;10.18;8.38;;;;;;;26.27;51.66;94980.97;5021311;28;20516;-63
2022/08/31 00:31:14;;;;;;;10.30;9.00;;;;;;;26.18;51.30;94960.75;5002760;28;20021;-63
2022/08/31 00:33:40;;;;;;;9.90;8.52;;;;;;;25.90;51.01;94928.47;5004049;28;20462;-64
2022/08/31 00:36:07;;;;;;;11.20;8.50;;;;;;;26.29;51.14;94972.97;5002159;28;20037;-63
2022/08/31 00:38:33;;;;;;;10.93;9.10;;;;;;;25.86;51.32;94941.72;5002408;28;20057;-64
2022/08/31 00:40:59;;;;;;;11.98;8.75;;;;;;;26.14;51.77;94971.25;5007639;28;20069;-63
2022/08/31 00:43:40;;;;;;;12.40;9.40;;;;;;;26.19;51.76;94967.69;5020090;28;20086;-64
2022/08/31 00:46:06;;;;;;;9.70;8.30;;;;;;;25.91;51.92;94931.94;4988126;28;20524;-64
2022/08/31 00:48:32;;;;;;;12.20;8.68;;;;;;;25.65;51.57;94901.84;5040413;28;20047;-64
2022/08/31 00:50:58;;;;;;;10.45;8.52;;;;;;;26.18;51.61;94983.38;5040360;28;20061;-64
2022/08/31 00:53:23;;;;;;;11.18;8.88;;;;;;;26.18;51.63;94988.84;5005252;28;20138;-64
2022/08/31 00:55:50;;;;;;;11.15;8.60;;;;;;;26.06;51.78;94964.97;5039313;28;20516;-64
2022/08/31 00:58:16;;;;;;;9.52;8.30;;;;;;;26.18;51.88;94983.38;5021767;28;20061;-64
2022/08/31 01:00:41;;;;;;;12.48;8.90;;;;;;;26.15;51.79;94973.47;5040525;28;20049;-63
2022/08/31 01:03:07;;;;;;;9.77;8.52;;;;;;;25.90;51.66;94941.41;5041278;28;20785;-64
2022/08/31 01:05:33;;;;;;;11.43;8.52;;;;;;;25.69;51.32;94907.00;5045380;28;20037;-64
2022/08/31 01:07:59;;;;;;;9.52;8.52;;;;;;;25.72;51.49;94914.16;5027423;28;20033;-64
2022/08/31 01:10:26;;;;;;;10.43;8.18;;;;;;;26.14;51.70;94976.75;5024575;28;20021;-64
2022/08/31 01:12:52;;;;;;;10.52;8.85;;;;;;;25.92;51.56;94934.13;5022914;28;20025;-64
2022/08/31 01:15:17;;;;;;;9.43;8.40;;;;;;;26.08;51.71;94954.94;5021481;28;20064;-63
2022/08/31 01:17:43;;;;;;;11.23;8.35;;;;;;;25.67;51.49;94902.06;5020633;28;20486;-64
2022/08/31 01:20:45;;;;;;;11.02;8.40;;;;;;;26.24;51.58;94981.25;5011673;28;20044;-64
2022/08/31 01:23:34;;;;;;;10.43;8.43;;;;;;;26.23;51.54;94990.72;5026819;28;20450;-63
2022/08/31 01:25:59;;;;;;;11.93;8.63;;;;;;;25.85;51.55;94934.75;5021914;28;20041;-64
2022/08/31 01:28:25;;;;;;;9.02;8.10;;;;;;;26.23;51.71;94979.78;5005483;28;20474;-65
2022/08/31 01:31:08;;;;;;;10.10;7.85;;;;;;;25.95;51.85;94956.97;5022326;28;20032;-64
2022/08/31 01:33:34;;;;;;;8.93;8.02;;;;;;;25.42;51.96;94864.50;5039359;28;20542;-63
2022/08/31 01:36:00;;;;;;;10.80;7.97;;;;;;;26.11;51.59;94973.06;5041027;28;20246;-64
2022/08/31 01:38:26;;;;;;;10.10;8.05;;;;;;;25.60;51.98;94912.88;5039108;28;20978;-63
2022/08/31 01:40:53;;;;;;;8.80;7.72;;;;;;;25.79;52.01;94929.94;5021920;28;20068;-63
2022/08/31 01:43:19;;;;;;;11.00;8.68;;;;;;;26.21;51.70;94985.06;5039166;28;20124;-63
2022/08/31 01:45:45;;;;;;;9.15;8.25;;;;;;;25.65;51.70;94920.25;5039774;28;20695;-64
2022/08/31 01:48:10;;;;;;;9.68;8.15;;;;;;;26.08;52.08;94968.63;5038990;28;20563;-64
2022/08/31 01:50:36;;;;;;;8.82;7.80;;;;;;;26.12;52.05;94969.06;5039601;28;20029;-63
2022/08/31 01:53:01;;;;;;;11.00;8.07;;;;;;;26.08;52.00;94965.91;5040642;28;20037;-64
2022/08/31 01:55:27;;;;;;;8.63;7.55;;;;;;;26.06;52.04;94971.16;5040336;28;20021;-63
2022/08/31 01:57:52;;;;;;;8.75;7.45;;;;;;;26.12;51.85;94974.53;5038974;28;20118;-63
2022/08/31 02:00:18;;;;;;;9.80;8.05;;;;;;;25.21;51.98;94844.50;5039398;28;20037;-63
2022/08/31 02:02:43;;;;;;;9.52;7.43;;;;;;;26.11;51.95;94973.06;5035911;28;20043;-63
2022/08/31 02:05:09;;;;;;;10.75;7.43;;;;;;;26.17;51.83;94981.88;5039345;28;20496;-64
2022/08/31 02:07:34;;;;;;;11.57;7.80;;;;;;;25.79;51.57;94920.47;5040456;28;20052;-63
2022/08/31 02:10:00;;;;;;;8.00;7.20;;;;;;;26.16;52.19;94990.63;5037938;28;20024;-63
2022/08/31 02:12:25;;;;;;;8.43;7.60;;;;;;;25.51;51.95;94883.22;5039088;28;20041;-63
2022/08/31 02:14:51;;;;;;;8.50;7.22;;;;;;;25.93;51.69;94946.56;5038813;28;20040;-62
2022/08/31 02:17:17;;;;;;;9.23;7.30;;;;;;;25.77;51.83;94921.50;5042432;28;20099;-62
2022/08/31 02:19:42;;;;;;;10.80;7.55;;;;;;;26.12;51.67;94980.00;5038989;28;20057;-65
2022/08/31 02:22:08;;;;;;;9.00;7.68;;;;;;;25.92;52.21;94972.44;5038724;28;20060;-64
2022/08/31 02:24:33;;;;;;;9.68;7.75;;;;;;;26.08;51.85;94979.56;5038610;28;20072;-62
2022/08/31 02:26:59;;;;;;;9.52;7.80;;;;;;;25.92;51.74;94956.03;5037980;28;20049;-63
2022/08/31 02:29:24;;;;;;;8.88;7.97;;;;;;;25.74;51.76;94933.50;5038996;28;20658;-62
2022/08/31 02:31:50;;;;;;;8.38;7.10;;;;;;;26.08;51.85;94979.56;5038485;28;20048;-64
2022/08/31 02:34:16;;;;;;;9.43;7.72;;;;;;;25.97;51.90;94974.34;5038277;28;20133;-63
2022/08/31 02:36:44;;;;;;;10.95;7.80;;;;;;;25.80;51.56;94932.16;5045422;28;20021;-62
2022/08/31 02:39:09;;;;;;;9.80;7.80;;;;;;;26.13;51.90;94973.28;5036319;28;20068;-63
2022/08/31 02:41:35;;;;;;;8.40;7.43;;;;;;;25.94;52.10;94969.91;5038722;28;20491;-62
2022/08/31 02:44:01;;;;;;;8.43;7.53;;;;;;;25.57;51.79;94902.97;5038476;28;20037;-62
2022/08/31 02:46:27;;;;;;;9.07;7.18;;;;;;;26.06;51.75;94979.38;5034742;28;20100;-65
2022/08/31 02:48:52;;;;;;;8.15;7.22;;;;;;;25.89;51.80;94946.13;5037485;28;20432;-61
2022/08/31 02:51:18;;;;;;;9.82;7.47;;;;;;;25.83;51.73;94931.84;5038548;28;20037;-62
2022/08/31 02:53:44;;;;;;;8.68;7.53;;;;;;;25.48;51.81;94878.78;5038562;28;20040;-64
2022/08/31 02:56:13;;;;;;;9.60;7.93;;;;;;;26.01;51.26;94958.34;5038629;28;20041;-63
2022/08/31 02:58:39;;;;;;;10.15;7.60;;;;;;;25.35;51.43;94859.63;5039481;28;20041;-64
2022/08/31 03:01:04;;;;;;;8.95;7.53;;;;;;;25.90;51.74;94952.34;5039639;28;20538;-64
2022/08/31 03:03:30;;;;;;;8.57;7.68;;;;;;;25.52;51.76;94890.16;5038827;28;20052;-64
2022/08/31 03:05:56;;;;;;;8.95;7.60;;;;;;;25.97;51.76;94957.91;5042052;28;20857;-64
2022/08/31 03:08:21;;;;;;;9.95;8.10;;;;;;;25.74;51.68;94930.78;5043810;28;20123;-65
2022/08/31 03:10:47;;;;;;;8.63;7.70;;;;;;;25.83;51.48;94942.03;5044367;28;20034;-64
2022/08/31 03:13:12;;;;;;;8.75;7.28;;;;;;;26.05;51.72;94977.16;5041877;28;20918;-64
2022/08/31 03:15:38;;;;;;;9.00;7.93;;;;;;;25.75;51.58;94935.00;5040958;28;20032;-63
2022/08/31 03:18:03;;;;;;;8.25;7.45;;;;;;;26.04;51.10;94981.91;5037903;28;20750;-64
2022/08/31 03:20:29;;;;;;;8.57;7.32;;;;;;;26.05;51.89;94983.41;5042307;28;20052;-64
2022/08/31 03:22:54;;;;;;;8.23;7.43;;;;;;;26.04;51.54;94979.19;5041450;28;20041;-65
2022/08/31 03:25:20;;;;;;;8.95;7.40;;;;;;;25.92;51.70;94964.25;5035682;28;20040;-64
2022/08/31 03:27:46;;;;;;;9.25;7.47;;;;;;;25.94;51.40;94963.72;5024086;28;20841;-64
2022/08/31 03:30:13;;;;;;;9.95;7.20;;;;;;;26.04;51.39;94968.22;5004401;28;20056;-64
2022/08/31 03:32:39;;;;;;;8.68;7.45;;;;;;;25.90;51.68;94953.09;5038651;28;20037;-65
2022/08/31 03:35:05;;;;;;;8.80;7.30;;;;;;;25.90;51.60;94958.56;5030734;28;20053;-64
2022/08/31 03:37:31;;;;;;;9.52;7.38;;;;;;;25.20;51.63;94848.53;5032909;28;20081;-64
2022/08/31 03:39:56;;;;;;;10.05;7.97;;;;;;;25.49;51.50;94896.69;5032586;28;20614;-64
2022/08/31 03:42:22;;;;;;;10.80;8.07;;;;;;;25.51;51.43;94894.16;5039956;28;20453;-64
2022/08/31 03:44:47;;;;;;;8.70;7.35;;;;;;;25.79;51.50;94935.41;5040071;28;20037;-64
2022/08/31 03:47:13;;;;;;;8.50;7.20;;;;;;;25.95;51.50;94965.91;5016997;28;20065;-65
2022/08/31 03:49:38;;;;;;;8.25;7.30;;;;;;;25.50;51.42;94898.13;5040458;28;20178;-65
2022/08/31 03:52:04;;;;;;;8.70;7.88;;;;;;;25.25;51.38;94883.22;5039837;28;20036;-64
2022/08/31 03:54:31;;;;;;;8.77;7.30;;;;;;;25.82;51.99;94959.72;5039711;28;20759;-65
2022/08/31 03:56:57;;;;;;;10.00;7.38;;;;;;;25.11;51.33;94856.38;5040428;28;20040;-64
2022/08/31 03:59:22;;;;;;;10.68;7.55;;;;;;;25.85;51.27;94962.13;5041049;28;20056;-64
2022/08/31 04:01:48;;;;;;;7.90;7.10;;;;;;;25.93;51.43;94982.13;5038554;28;20041;-64
2022/08/31 04:04:14;;;;;;;8.77;7.40;;;;;;;25.93;51.56;94965.72;5041084;28;20094;-64
2022/08/31 04:06:40;;;;;;;8.05;7.07;;;;;;;25.71;51.43;94948.25;5022485;28;20563;-64
2022/08/31 04:09:05;;;;;;;9.50;7.80;;;;;;;25.93;51.46;94979.41;5040900;28;20151;-65
2022/08/31 04:11:31;;;;;;;8.75;7.35;;;;;;;25.28;51.65;94887.63;5040472;28;20228;-64
2022/08/31 04:13:57;;;;;;;8.63;7.03;;;;;;;25.54;51.57;94925.91;5040894;28;20437;-62
2022/08/31 04:16:22;;;;;;;10.23;7.85;;;;;;;25.56;51.26;94923.38;5040572;28;20234;-62
2022/08/31 04:18:48;;;;;;;8.85;7.97;;;;;;;25.56;51.65;94920.63;5034238;28;20406;-64
2022/08/31 04:21:19;;;;;;;8.70;7.72;;;;;;;25.79;51.57;94968.25;5036586;28;20068;-64
2022/08/31 04:23:45;;;;;;;10.38;7.90;;;;;;;25.91;51.27;94979.19;5005786;28;20033;-64
2022/08/31 04:26:15;;;;;;;9.50;8.20;;;;;;;25.63;51.56;94928.22;5040630;28;20029;-64
2022/08/31 04:28:41;;;;;;;9.07;7.75;;;;;;;25.26;51.46;94884.69;5040578;28;20079;-63
2022/08/31 04:31:09;;;;;;;10.43;7.90;;;;;;;25.91;51.68;94976.44;5040122;28;20052;-64
2022/08/31 04:33:36;;;;;;;9.23;8.23;;;;;;;25.74;51.60;94952.66;5040766;28;20045;-64
2022/08/31 04:36:07;;;;;;;9.65;7.93;;;;;;;25.51;51.70;94921.50;5040046;28;20044;-65
2022/08/31 04:38:33;;;;;;;9.85;8.48;;;;;;;25.62;51.63;94937.69;5038583;28;20036;-64
2022/08/31 04:41:08;;;;;;;9.07;7.72;;;;;;;25.67;51.66;94950.56;5027067;28;20039;-64
2022/08/31 04:43:34;;;;;;;10.32;7.38;;;;;;;25.75;51.70;94963.06;5040371;28;20037;-64
2022/08/31 04:46:01;;;;;;;13.70;7.68;;;;;;;25.79;51.57;94964.22;5040867;28;20053;-62
2022/08/31 04:48:26;;;;;;;9.07;7.97;;;;;;;25.82;51.63;94978.88;5024098;28;20101;-65
2022/08/31 04:51:01;;;;;;;10.55;7.93;;;;;;;25.95;51.97;94987.09;5044208;28;20492;-64
2022/08/31 04:53:27;;;;;;;11.55;7.97;;;;;;;25.75;51.91;94956.88;5043417;28;20048;-64
2022/08/31 04:55:52;;;;;;;8.82;7.68;;;;;;;25.38;51.51;94902.34;5041167;28;20041;-64
2022/08/31 04:58:19;;;;;;;10.52;7.07;;;;;;;25.97;51.85;94985.28;5040451;28;20035;-64
2022/08/31 05:00:45;;;;;;;12.65;7.85;;;;;;;25.79;51.58;94957.31;5041053;28;20377;-65
2022/08/31 05:03:11;;;;;;;9.82;7.22;;;;;;;25.99;51.69;94980.03;5037482;28;20033;-65
2022/08/31 05:05:37;;;;;;;9.73;8.18;;;;;;;25.56;51.38;94917.91;5041689;28;20047;-65
2022/08/31 05:08:04;;;;;;;9.85;7.88;;;;;;;25.24;51.51;94859.84;5043108;28;20554;-64
2022/08/31 05:10:29;;;;;;;12.65;7.70;;;;;;;25.24;51.67;94870.78;5040180;28;20052;-64
2022/08/31 05:12:55;;;;;;;9.70;7.38;;;;;;;25.65;51.70;94920.25;5039345;28;20880;-63
2022/08/31 05:15:20;;;;;;;9.95;7.75;;;;;;;25.83;51.71;94953.72;5040029;28;20076;-64
2022/08/31 05:17:46;;;;;;;10.30;8.38;;;;;;;25.43;51.75;94887.84;5020265;28;20125;-64
2022/08/31 05:20:11;;;;;;;11.75;8.43;;;;;;;25.96;51.65;94958.44;5030306;28;20540;-64
2022/08/31 05:22:37;;;;;;;11.65;8.25;;;;;;;25.48;51.45;94889.72;5039318;28;20063;-63
2022/08/31 05:25:05;;;;;;;10.30;8.18;;;;;;;25.71;51.77;94918.16;5033263;28;20076;-64
2022/08/31 05:27:32;;;;;;;8.88;7.97;;;;;;;25.57;51.26;94900.25;5035052;28;20041;-64
2022/08/31 05:29:57;;;;;;;9.75;8.57;;;;;;;25.78;52.53;94942.16;5039325;28;20091;-63
2022/08/31 05:32:23;;;;;;;10.43;8.20;;;;;;;25.93;52.90;94965.72;5052940;28;20128;-66
2022/08/31 05:34:48;;;;;;;10.07;8.80;;;;;;;25.67;52.62;94910.25;5039706;28;20044;-66
2022/08/31 05:37:14;;;;;;;9.63;8.38;;;;;;;26.03;52.50;94958.53;5041320;28;20020;-66
2022/08/31 05:39:39;;;;;;;10.38;7.72;;;;;;;25.45;52.55;94885.31;5051428;28;20013;-66
2022/08/31 05:42:06;;;;;;;10.93;7.93;;;;;;;26.06;52.44;94975.91;5038602;28;20033;-63
2022/08/31 05:44:35;;;;;;;9.15;8.15;;;;;;;25.73;52.31;94912.91;5042633;28;20044;-64
2022/08/31 05:47:02;;;;;;;9.37;7.93;;;;;;;25.83;52.27;94925.63;5033083;28;20043;-64
2022/08/31 05:49:28;;;;;;;12.10;7.80;;;;;;;26.09;52.74;94959.16;5039080;28;20033;-62
2022/08/31 05:51:55;;;;;;;10.45;8.48;;;;;;;25.54;52.09;94865.75;5041774;28;20017;-65
2022/08/31 05:54:20;;;;;;;9.73;7.47;;;;;;;25.60;52.13;94885.53;5038664;28;20033;-65
2022/08/31 05:56:46;;;;;;;9.43;7.72;;;;;;;25.71;51.94;94896.25;5038564;28;20052;-65
2022/08/31 05:59:11;;;;;;;9.95;7.82;;;;;;;26.09;52.18;94942.00;5039475;28;20048;-64
2022/08/31 06:01:38;;;;;;;8.93;7.28;;;;;;;26.21;51.99;94944.00;5036518;28;20075;-65
2022/08/31 06:04:03;;;;;;;10.40;8.10;;;;;;;25.61;52.07;94865.13;5040082;28;20036;-65
2022/08/31 06:06:29;;;;;;;10.45;8.05;;;;;;;26.13;52.20;94943.16;5024214;28;20132;-66
2022/08/31 06:08:55;;;;;;;10.68;8.43;;;;;;;26.05;52.04;94919.69;5039494;28;20036;-64
2022/08/31 06:11:22;;;;;;;8.50;7.38;;;;;;;25.77;51.97;94877.75;5038729;28;20033;-66
2022/08/31 06:13:49;;;;;;;10.82;7.93;;;;;;;26.08;52.07;94924.84;5039663;28;20048;-65
2022/08/31 06:16:16;;;;;;;9.48;6.88;;;;;;;25.73;52.06;94866.41;5019542;28;20021;-65
2022/08/31 06:18:49;;;;;;;8.88;7.30;;;;;;;25.88;52.30;94886.47;5034005;28;20025;-65
2022/08/31 06:21:22;;;;;;;8.88;7.22;;;;;;;25.04;52.44;94786.69;5018377;28;20045;-65
2022/08/31 06:23:49;;;;;;;9.43;7.72;;;;;;;25.95;52.10;94902.97;5020975;28;20041;-64
2022/08/31 08:17:03;;;;;;;9.05;8.15;;;;;;;26.52;52.19;94929.41;5078904;27;20414;-62
2022/08/31 08:19:28;;;;;;;9.07;7.38;;;;;;;26.26;52.13;94885.63;5060525;28;20052;-64
2022/08/31 08:21:54;;;;;;;9.32;7.63;;;;;;;26.54;52.01;94932.34;5059927;28;20635;-65
2022/08/31 08:24:20;;;;;;;9.55;7.68;;;;;;;26.56;52.30;94924.31;5060466;28;20053;-63
2022/08/31 08:26:47;;;;;;;9.18;8.25;;;;;;;26.59;52.03;94928.75;5056330;28;20085;-61
2022/08/31 08:29:12;;;;;;;9.95;7.63;;;;;;;26.47;52.33;94905.59;5058590;28;20032;-61
2022/08/31 08:31:38;;;;;;;10.48;8.00;;;;;;;26.14;51.55;94856.31;5046738;28;20045;-64
2022/08/31 08:34:04;;;;;;;9.30;7.13;;;;;;;26.13;51.64;94854.81;5058763;28;20484;-61
2022/08/31 08:36:34;;;;;;;9.43;7.70;;;;;;;26.42;51.65;94898.25;5040992;28;20020;-63
2022/08/31 08:39:00;;;;;;;8.15;7.38;;;;;;;26.62;51.90;94922.19;5058795;28;20098;-63
2022/08/31 08:41:26;;;;;;;9.10;7.45;;;;;;;26.69;51.48;94924.28;5058542;28;20034;-62
2022/08/31 08:43:59;;;;;;;8.30;7.45;;;;;;;26.56;51.88;94907.88;5057453;28;20592;-61
2022/08/31 08:46:48;;;;;;;9.43;7.63;;;;;;;26.71;51.78;94919.75;5040622;28;20194;-62
2022/08/31 08:49:15;;;;;;;9.83;7.87;;;;;;;26.58;51.37;94894.41;5058191;28;20071;-64
2022/08/31 08:51:40;;;;;;;8.70;7.65;;;;;;;26.76;51.98;94926.38;5056869;28;20227;-64
2022/08/31 08:54:09;;;;;;;9.35;7.53;;;;;;;26.76;51.43;94911.38;5056527;28;20040;-63
2022/08/31 08:56:40;;;;;;;9.10;7.97;;;;;;;26.71;51.68;94903.31;5036507;28;20498;-64
2022/08/31 08:59:07;;;;;;;8.57;7.72;;;;;;;26.80;51.31;94911.81;5056326;28;20033;-64
2022/08/31 09:01:34;;;;;;;8.07;7.28;;;;;;;26.82;50.94;94903.78;5059714;28;20037;-63
2022/08/31 09:04:06;;;;;;;9.13;7.13;;;;;;;26.83;51.34;94894.28;5039366;28;20513;-62
2022/08/31 09:06:38;;;;;;;9.75;7.53;;;;;;;26.85;51.06;94891.75;5058050;28;20036;-64
2022/08/31 09:09:31;;;;;;;9.32;7.55;;;;;;;26.53;51.50;94832.25;5057851;28;20041;-63
2022/08/31 09:12:10;;;;;;;8.25;7.38;;;;;;;26.76;51.35;94867.53;5036214;28;20468;-63
2022/08/31 09:14:47;;;;;;;9.60;7.85;;;;;;;26.91;50.90;94884.16;5053942;28;20127;-62
2022/08/31 09:17:38;;;;;;;9.43;7.38;;;;;;;26.91;51.23;94884.16;5035101;28;20044;-62
2022/08/31 09:20:05;;;;;;;7.93;7.13;;;;;;;26.93;51.28;94881.59;5015846;28;20107;-62
2022/08/31 09:22:45;;;;;;;8.50;7.70;;;;;;;26.97;50.83;94875.81;5024412;28;20095;-61
2022/08/31 09:25:18;;;;;;;10.88;7.47;;;;;;;26.52;50.31;94797.94;5027488;28;20040;-63
2022/08/31 09:27:56;;;;;;;8.00;7.20;;;;;;;27.01;50.95;94874.19;5044650;28;20140;-62
2022/08/31 09:30:38;;;;;;;9.43;7.47;;;;;;;27.03;50.69;94868.19;5045009;28;20080;-62
2022/08/31 09:33:04;;;;;;;8.20;7.15;;;;;;;26.54;50.64;94795.41;5022513;28;20094;-62
2022/08/31 09:35:39;;;;;;;9.05;7.40;;;;;;;27.05;50.77;94871.81;5014376;28;20772;-62
2022/08/31 09:38:14;;;;;;;7.60;6.78;;;;;;;27.00;50.45;94869.25;5024421;28;20774;-62
2022/08/31 09:40:41;;;;;;;8.75;7.28;;;;;;;26.96;50.39;94861.34;5023606;28;20037;-62
2022/08/31 09:43:22;;;;;;;8.90;7.55;;;;;;;26.77;50.36;94825.19;5023056;28;20501;-62
2022/08/31 09:46:04;;;;;;;9.18;7.80;;;;;;;27.09;50.72;94861.28;5011113;28;20087;-63
2022/08/31 09:48:54;;;;;;;9.70;7.80;;;;;;;26.73;50.13;94801.41;5008162;28;20655;-62
2022/08/31 09:51:20;;;;;;;8.90;7.38;;;;;;;27.15;50.18;94842.66;5023804;28;20484;-62
2022/08/31 09:56:29;;;;;;;8.00;7.20;;;;;;;26.76;50.35;94768.91;5023586;28;20989;-63
2022/08/31 09:59:03;;;;;;;8.70;7.90;;;;;;;27.20;50.35;94822.59;5023950;28;20049;-63
2022/08/31 10:01:34;;;;;;;8.40;7.50;;;;;;;26.84;50.67;94772.44;5024209;28;20049;-62
2022/08/31 10:04:22;;;;;;;10.10;7.72;;;;;;;27.16;50.11;94805.75;5023675;28;20018;-63
2022/08/31 10:07:10;;;;;;;9.00;7.53;;;;;;;27.24;50.74;94823.00;5022252;28;20029;-63
2022/08/31 10:09:43;;;;;;;7.82;7.13;;;;;;;27.25;50.22;94818.97;5025013;28;20036;-64
2022/08/31 10:12:12;;;;;;;8.82;7.30;;;;;;;27.11;50.51;94798.41;5025703;28;20080;-63
2022/08/31 10:14:51;;;;;;;8.27;7.27;;;;;;;27.26;50.43;94820.44;5010811;28;20057;-63
2022/08/31 10:17:31;;;;;;;8.70;7.40;;;;;;;27.22;50.05;94809.09;5043177;28;20359;-63
2022/08/31 10:20:29;;;;;;;;;;;;;;;27.30;50.31;94820.84;5046508;28;20032;-63
2022/08/31 10:23:57;;;;;;;7.95;7.15;;;;;;;27.32;50.29;94801.81;5047635;28;19986;-63
2022/08/31 10:26:38;;;;;;;9.35;7.45;;;;;;;26.57;49.57;94690.25;5044870;28;20040;-63
2022/08/31 10:29:27;;;;;;;9.93;7.22;;;;;;;27.09;49.86;94767.34;5022876;28;20033;-63
2022/08/31 10:31:53;;;;;;;9.18;7.78;;;;;;;27.20;49.83;94773.22;5024573;28;20127;-63
2022/08/31 10:37:31;;;;;;;8.75;7.38;;;;;;;26.88;49.79;94720.75;5023365;28;20041;-63
2022/08/31 10:39:58;;;;;;;8.85;7.45;;;;;;;26.99;49.96;94736.19;5014420;28;20032;-63
2022/08/31 10:42:28;;;;;;;9.45;7.55;;;;;;;27.17;50.17;94768.81;5049705;28;20024;-63
2022/08/31 10:44:57;;;;;;;9.02;7.57;;;;;;;26.67;50.26;94699.44;5046393;28;20044;-62
2022/08/31 10:47:27;;;;;;;9.10;7.03;;;;;;;27.27;49.68;94805.47;5052248;28;20501;-62
2022/08/31 10:49:57;;;;;;;8.50;7.55;;;;;;;27.17;50.29;94795.53;5048629;28;20112;-64
2022/08/31 10:52:36;;;;;;;10.25;8.00;;;;;;;27.34;49.50;94815.75;5046210;28;20025;-62
2022/08/31 10:55:22;;;;;;;10.13;7.68;;;;;;;26.77;49.60;94739.53;5044915;28;20074;-63
2022/08/31 10:58:02;;;;;;;11.32;7.97;;;;;;;27.33;49.03;94825.25;5043909;28;20036;-63
2022/08/31 11:00:46;;;;;;;10.68;8.73;;;;;;;26.70;49.74;94714.81;5043553;28;20508;-63
2022/08/31 11:03:30;;;;;;;9.20;7.75;;;;;;;27.35;49.24;94828.16;5041353;28;20271;-61
2022/08/31 11:06:00;;;;;;;9.57;8.00;;;;;;;26.84;49.15;94758.72;5041594;28;20044;-63
2022/08/31 11:08:56;;;;;;;9.95;8.05;;;;;;;27.38;49.08;94838.06;5042292;28;20044;-62
2022/08/31 11:11:44;;;;;;;10.40;7.90;;;;;;;27.39;49.36;94850.50;5025177;28;20033;-63
2022/08/31 11:14:28;;;;;;;11.50;7.95;;;;;;;27.37;49.23;94853.78;5030584;28;20045;-63
2022/08/31 11:17:31;;;;;;;9.75;8.13;;;;;;;27.39;48.81;94861.47;5030840;28;20037;-63
2022/08/31 11:20:33;;;;;;;12.70;8.13;;;;;;;27.38;48.77;94857.25;5030655;28;21215;-63
2022/08/31 11:23:41;;;;;;;12.15;7.97;;;;;;;27.38;48.43;94854.50;5025055;28;20037;-62
2022/08/31 11:26:43;;;;;;;10.75;8.15;;;;;;;27.36;48.33;94857.78;4996694;28;20041;-63
2022/08/31 11:29:21;;;;;;;11.48;7.53;;;;;;;27.36;48.58;94863.28;5009070;28;20055;-65
2022/08/31 11:31:47;;;;;;;10.85;8.23;;;;;;;27.07;48.54;94814.47;5031353;28;20044;-63
2022/08/31 11:34:24;;;;;;;9.85;8.20;;;;;;;27.29;48.36;94835.81;5019212;28;20029;-63
2022/08/31 11:36:54;;;;;;;11.00;8.55;;;;;;;26.95;48.15;94774.16;5038694;28;20061;-63
2022/08/31 11:39:25;;;;;;;9.60;8.40;;;;;;;26.83;48.46;94746.31;5041752;28;20079;-63
2022/08/31 11:41:51;;;;;;;10.43;8.23;;;;;;;27.31;48.50;94817.56;5040212;28;20031;-64
2022/08/31 11:44:30;;;;;;;12.23;8.50;;;;;;;27.32;48.11;94821.00;5041754;28;20513;-65
2022/08/31 11:47:00;;;;;;;9.63;7.77;;;;;;;27.27;48.44;94817.16;5041382;28;20041;-63
2022/08/31 11:49:50;;;;;;;12.13;8.85;;;;;;;27.31;48.37;94814.09;5041948;28;20036;-64
2022/08/31 11:52:28;;;;;;;11.55;8.32;;;;;;;27.28;48.33;94817.91;5020781;28;20076;-64
2022/08/31 11:55:09;;;;;;;10.30;8.35;;;;;;;27.30;48.32;94820.84;5034734;28;20033;-64
2022/08/31 11:58:05;;;;;;;10.98;7.88;;;;;;;27.28;48.46;94812.41;5028301;28;20025;-63
2022/08/31 12:01:08;;;;;;;9.40;8.27;;;;;;;27.31;47.87;94812.06;5041278;28;20049;-64
2022/08/31 12:03:55;;;;;;;9.10;8.20;;;;;;;27.28;47.78;94810.41;5037039;28;20114;-62
2022/08/31 12:06:26;;;;;;;11.07;8.52;;;;;;;27.27;48.14;94805.47;5028199;28;20060;-64
2022/08/31 12:09:13;;;;;;;9.73;8.25;;;;;;;27.27;47.95;94806.19;5039744;28;20041;-63
2022/08/31 12:11:58;;;;;;;11.40;7.88;;;;;;;27.27;48.15;94810.94;5041111;28;20041;-63
2022/08/31 12:14:33;;;;;;;11.70;8.65;;;;;;;27.27;48.52;94805.47;5039888;28;20751;-63
2022/08/31 12:17:29;;;;;;;12.18;8.55;;;;;;;27.29;48.60;94824.84;5040976;28;20145;-63
2022/08/31 12:20:07;;;;;;;12.20;8.55;;;;;;;27.28;48.55;94823.38;4992535;28;20063;-63
2022/08/31 12:25:22;;;;;;;9.77;8.68;;;;;;;27.29;48.47;94830.31;5041437;28;20044;-62
2022/08/31 12:28:01;;;;;;;10.32;8.85;;;;;;;27.04;48.59;94804.59;5039569;28;20021;-62
2022/08/31 12:30:26;;;;;;;11.53;9.30;;;;;;;27.15;48.72;94814.53;5027930;28;20021;-66
2022/08/31 12:33:07;;;;;;;23.73;12.93;;;;;;;27.30;48.15;94851.00;5041153;28;20288;-63
2022/08/31 12:35:32;;;;;;;21.02;11.90;;;;;;;27.24;48.24;94855.91;5028274;28;20171;-64
2022/08/31 12:38:02;;;;;;;16.73;10.40;;;;;;;27.31;48.45;94861.44;5040899;28;20124;-62
2022/08/31 12:40:42;;;;;;;17.17;10.88;;;;;;;26.96;48.91;94814.03;5041480;28;20056;-63
2022/08/31 12:43:24;;;;;;;16.75;10.10;;;;;;;27.15;48.91;94837.19;5040029;28;20041;-63
2022/08/31 12:46:14;;;;;;;15.10;10.23;;;;;;;27.32;48.46;94862.16;5019828;28;20026;-64
2022/08/31 12:48:50;;;;;;;;;;;;;;;27.33;48.75;94858.16;5039325;28;20100;-63
2022/08/31 12:51:53;;;;;;;16.60;10.57;;;;;;;27.33;48.78;94863.63;5039999;28;19974;-63
2022/08/31 12:54:27;;;;;;;15.55;10.00;;;;;;;27.32;48.78;94867.63;5033161;28;20049;-63
2022/08/31 12:57:11;;;;;;;14.88;9.50;;;;;;;27.34;49.02;94859.63;5044249;28;20080;-64
2022/08/31 12:59:46;;;;;;;15.60;10.30;;;;;;;26.79;49.12;94808.22;5044963;28;20037;-64
2022/08/31 13:02:12;;;;;;;15.23;10.55;;;;;;;27.25;49.26;94851.88;5044297;28;20044;-62
2022/08/31 13:04:42;;;;;;;16.98;9.60;;;;;;;27.34;49.22;94865.13;5045088;28;20495;-64
2022/08/31 13:07:20;;;;;;;14.65;9.20;;;;;;;27.35;48.95;94855.59;5042455;28;20044;-63
2022/08/31 13:09:46;;;;;;;14.27;9.55;;;;;;;27.35;48.78;94855.59;5044349;28;20017;-65
2022/08/31 13:12:21;;;;;;;13.82;9.40;;;;;;;26.89;48.96;94782.56;5043381;28;20595;-62
2022/08/31 13:14:46;;;;;;;13.90;9.07;;;;;;;27.35;49.00;94850.09;5044951;28;20037;-62
2022/08/31 13:17:13;;;;;;;13.73;8.77;;;;;;;27.35;48.91;94850.09;5035574;28;20043;-64
2022/08/31 13:19:40;;;;;;;13.50;8.98;;;;;;;27.04;48.57;94793.63;5044977;28;20087;-63
2022/08/31 13:22:07;;;;;;;12.93;9.20;;;;;;;26.99;49.03;94782.78;5042862;28;20144;-63
2022/08/31 13:24:40;;;;;;;11.52;9.07;;;;;;;27.37;49.05;94836.59;5043624;28;20024;-64
2022/08/31 13:27:20;;;;;;;12.95;8.75;;;;;;;27.17;48.66;94804.47;5044278;28;20443;-64
2022/08/31 13:29:46;;;;;;;11.05;8.32;;;;;;;26.65;48.29;94762.25;5044361;28;20132;-62
2022/08/31 13:32:32;;;;;;;11.32;8.80;;;;;;;27.34;48.73;94834.94;5026528;28;20041;-64
2022/08/31 13:35:01;;;;;;;11.57;8.18;;;;;;;27.21;48.71;94796.66;5037723;28;20041;-63
2022/08/31 13:37:30;;;;;;;14.52;8.80;;;;;;;27.42;48.29;94816.50;5044058;28;20049;-63
2022/08/31 13:39:55;;;;;;;11.60;8.25;;;;;;;27.11;47.81;94776.47;5042962;28;20025;-63
2022/08/31 13:42:31;;;;;;;9.98;8.60;;;;;;;27.52;47.18;94831.22;5043107;28;20025;-63
2022/08/31 13:45:00;;;;;;;7.60;6.22;;;;;;;27.35;43.72;94811.72;5042007;28;20056;-63
2022/08/31 13:47:34;;;;;;;9.10;6.07;;;;;;;26.77;43.89;94742.97;5042186;28;20421;-67
2022/08/31 13:50:17;;;;;;;8.48;6.25;;;;;;;27.13;44.52;94817.81;5042937;28;20021;-67